sensor_id;sensor_type;location;lat;lon;timestamp;pressure;altitude;pressure_sealevel;temperature;humidity
75681;BME280;64294;49.176;16.626;2024-02-26T00:01:27;74550.81;;;-145.65;100.00
75681;BME280;64294;49.176;16.626;2024-02-26T00:03:53;74550.81;;;-145.65;100.00
75681;BME280;64294;49.176;16.626;2024-02-26T00:06:20;74550.81;;;-145.65;100.00
75681;BME280;64294;49.176;16.626;2024-02-26T00:08:46;74550.81;;;-145.65;100.00
75681;BME280;64294;49.176;16.626;2024-02-26T00:11:11;74550.81;;;20.23;100.00
75681;BME280;64294;49.176;16.626;2024-02-26T00:13:36;108582.34;;;4.60;0.00
75681;BME280;64294;49.176;16.626;2024-02-26T00:16:03;98114.94;;;5.88;nan
75681;BME280;64294;49.176;16.626;2024-02-26T00:18:29;98117.50;;;6.65;nan
75681;BME280;64294;49.176;16.626;2024-02-26T00:20:57;98119.00;;;7.13;nan
75681;BME280;64294;49.176;16.626;2024-02-26T00:23:23;98118.41;;;7.49;nan
75681;BME280;64294;49.176;16.626;2024-02-26T00:25:49;98106.63;;;7.64;nan
75681;BME280;64294;49.176;16.626;2024-02-26T00:28:14;98107.47;;;8.00;nan
75681;BME280;64294;49.176;16.626;2024-02-26T00:30:39;98112.00;;;7.82;nan
75681;BME280;64294;49.176;16.626;2024-02-26T00:33:05;98106.53;;;7.77;nan
75681;BME280;64294;49.176;16.626;2024-02-26T00:35:30;98103.69;;;7.48;nan
75681;BME280;64294;49.176;16.626;2024-02-26T00:37:55;98097.59;;;7.57;nan
75681;BME280;64294;49.176;16.626;2024-02-26T00:40:21;98098.09;;;7.69;nan
75681;BME280;64294;49.176;16.626;2024-02-26T00:42:46;98099.56;;;7.70;nan
75681;BME280;64294;49.176;16.626;2024-02-26T00:45:13;98092.97;;;7.81;nan
75681;BME280;64294;49.176;16.626;2024-02-26T00:47:38;98091.81;;;8.05;nan
75681;BME280;64294;49.176;16.626;2024-02-26T00:50:06;98091.50;;;8.44;nan
75681;BME280;64294;49.176;16.626;2024-02-26T00:52:32;98086.97;;;8.34;nan
75681;BME280;64294;49.176;16.626;2024-02-26T00:54:57;98089.06;;;8.41;nan
75681;BME280;64294;49.176;16.626;2024-02-26T00:57:23;98081.81;;;7.88;nan
75681;BME280;64294;49.176;16.626;2024-02-26T00:59:48;98081.91;;;7.75;nan
75681;BME280;64294;49.176;16.626;2024-02-26T01:02:13;98078.41;;;6.65;nan
75681;BME280;64294;49.176;16.626;2024-02-26T01:04:39;98075.78;;;7.35;nan
75681;BME280;64294;49.176;16.626;2024-02-26T01:07:04;98076.06;;;7.94;nan
75681;BME280;64294;49.176;16.626;2024-02-26T01:09:30;98072.13;;;7.89;nan
75681;BME280;64294;49.176;16.626;2024-02-26T01:11:56;98068.22;;;8.21;nan
75681;BME280;64294;49.176;16.626;2024-02-26T01:14:24;98067.56;;;8.79;nan
75681;BME280;64294;49.176;16.626;2024-02-26T01:16:49;98069.63;;;8.79;nan
75681;BME280;64294;49.176;16.626;2024-02-26T01:19:16;98069.56;;;8.64;nan
75681;BME280;64294;49.176;16.626;2024-02-26T01:21:42;98073.16;;;8.36;nan
75681;BME280;64294;49.176;16.626;2024-02-26T01:24:07;98070.25;;;8.49;nan
75681;BME280;64294;49.176;16.626;2024-02-26T01:26:33;98060.44;;;8.71;nan
75681;BME280;64294;49.176;16.626;2024-02-26T01:28:58;98050.03;;;8.87;nan
75681;BME280;64294;49.176;16.626;2024-02-26T01:31:23;98052.25;;;8.88;nan
75681;BME280;64294;49.176;16.626;2024-02-26T01:33:49;98050.75;;;8.87;nan
75681;BME280;64294;49.176;16.626;2024-02-26T01:36:14;98052.81;;;8.87;nan
75681;BME280;64294;49.176;16.626;2024-02-26T01:38:40;98045.72;;;8.86;nan
75681;BME280;64294;49.176;16.626;2024-02-26T01:41:05;98043.66;;;8.78;nan
75681;BME280;64294;49.176;16.626;2024-02-26T01:43:34;98052.38;;;8.67;nan
75681;BME280;64294;49.176;16.626;2024-02-26T01:46:00;98044.84;;;8.47;nan
75681;BME280;64294;49.176;16.626;2024-02-26T01:48:25;98048.19;;;8.38;nan
75681;BME280;64294;49.176;16.626;2024-02-26T01:50:51;98046.97;;;8.62;nan
75681;BME280;64294;49.176;16.626;2024-02-26T01:53:17;98052.59;;;8.33;nan
75681;BME280;64294;49.176;16.626;2024-02-26T01:55:44;98045.03;;;8.41;nan
75681;BME280;64294;49.176;16.626;2024-02-26T01:58:10;98048.03;;;8.51;nan
75681;BME280;64294;49.176;16.626;2024-02-26T02:00:36;-820.31;;;175.27;100.00
75681;BME280;64294;49.176;16.626;2024-02-26T02:03:03;98042.22;;;5.14;nan
75681;BME280;64294;49.176;16.626;2024-02-26T02:05:29;98041.25;;;6.10;nan
75681;BME280;64294;49.176;16.626;2024-02-26T02:07:55;95985.88;;;6.10;93.28
75681;BME280;64294;49.176;16.626;2024-02-26T02:10:21;98047.44;;;6.89;nan
75681;BME280;64294;49.176;16.626;2024-02-26T02:12:51;98041.63;;;7.50;nan
75681;BME280;64294;49.176;16.626;2024-02-26T02:15:16;98043.41;;;6.98;nan
75681;BME280;64294;49.176;16.626;2024-02-26T02:17:42;98048.00;;;6.41;nan
75681;BME280;64294;49.176;16.626;2024-02-26T02:20:17;74550.81;;;-145.65;100.00
75681;BME280;64294;49.176;16.626;2024-02-26T02:22:46;74550.81;;;-145.65;100.00
75681;BME280;64294;49.176;16.626;2024-02-26T02:25:12;74550.81;;;-145.65;100.00
75681;BME280;64294;49.176;16.626;2024-02-26T02:27:38;74550.81;;;-145.65;100.00
75681;BME280;64294;49.176;16.626;2024-02-26T02:30:05;74550.81;;;-145.65;100.00
75681;BME280;64294;49.176;16.626;2024-02-26T02:32:31;74550.81;;;-145.65;100.00
75681;BME280;64294;49.176;16.626;2024-02-26T02:34:56;74550.81;;;-145.65;100.00
75681;BME280;64294;49.176;16.626;2024-02-26T02:37:22;74550.81;;;-145.65;100.00
75681;BME280;64294;49.176;16.626;2024-02-26T02:39:47;74550.81;;;-145.65;100.00
75681;BME280;64294;49.176;16.626;2024-02-26T02:42:13;74550.81;;;-145.65;100.00
75681;BME280;64294;49.176;16.626;2024-02-26T02:44:38;74550.81;;;-145.65;100.00
75681;BME280;64294;49.176;16.626;2024-02-26T02:47:04;74550.81;;;-145.65;100.00
75681;BME280;64294;49.176;16.626;2024-02-26T02:49:29;74550.81;;;-145.65;100.00
75681;BME280;64294;49.176;16.626;2024-02-26T02:51:54;74550.81;;;-145.65;100.00
75681;BME280;64294;49.176;16.626;2024-02-26T02:54:22;74550.81;;;-145.65;100.00
75681;BME280;64294;49.176;16.626;2024-02-26T02:56:47;74550.81;;;-145.65;100.00
75681;BME280;64294;49.176;16.626;2024-02-26T02:59:13;74550.81;;;-145.65;100.00
75681;BME280;64294;49.176;16.626;2024-02-26T03:01:40;74550.81;;;-145.65;100.00
75681;BME280;64294;49.176;16.626;2024-02-26T03:04:05;74550.81;;;-145.65;100.00
75681;BME280;64294;49.176;16.626;2024-02-26T03:06:30;74550.81;;;-145.65;100.00
75681;BME280;64294;49.176;16.626;2024-02-26T03:08:56;74550.81;;;-145.65;100.00
75681;BME280;64294;49.176;16.626;2024-02-26T03:11:21;74550.81;;;-145.65;100.00
75681;BME280;64294;49.176;16.626;2024-02-26T03:13:47;119356.22;;;183.58;100.00
75681;BME280;64294;49.176;16.626;2024-02-26T03:16:12;98005.34;;;7.57;nan
75681;BME280;64294;49.176;16.626;2024-02-26T03:18:40;98011.25;;;8.47;nan
75681;BME280;64294;49.176;16.626;2024-02-26T03:21:06;98014.28;;;8.57;nan
75681;BME280;64294;49.176;16.626;2024-02-26T03:23:32;98018.34;;;8.48;nan
75681;BME280;64294;49.176;16.626;2024-02-26T03:26:04;98018.03;;;8.67;nan
75681;BME280;64294;49.176;16.626;2024-02-26T03:28:30;98010.78;;;8.87;nan
75681;BME280;64294;49.176;16.626;2024-02-26T03:30:58;98011.56;;;9.10;nan
75681;BME280;64294;49.176;16.626;2024-02-26T03:33:23;98017.38;;;9.20;nan
75681;BME280;64294;49.176;16.626;2024-02-26T03:35:49;98015.88;;;9.26;nan
75681;BME280;64294;49.176;16.626;2024-02-26T03:38:14;98018.66;;;8.96;nan
75681;BME280;64294;49.176;16.626;2024-02-26T03:40:39;98013.28;;;9.51;nan
75681;BME280;64294;49.176;16.626;2024-02-26T03:43:05;98024.13;;;9.55;nan
75681;BME280;64294;49.176;16.626;2024-02-26T03:45:32;98023.16;;;9.90;nan
75681;BME280;64294;49.176;16.626;2024-02-26T03:47:58;98008.66;;;10.17;nan
75681;BME280;64294;49.176;16.626;2024-02-26T03:50:23;98004.47;;;10.41;nan
75681;BME280;64294;49.176;16.626;2024-02-26T03:52:49;98001.41;;;9.98;nan
75681;BME280;64294;49.176;16.626;2024-02-26T03:55:14;98003.06;;;10.24;nan
75681;BME280;64294;49.176;16.626;2024-02-26T03:57:40;98013.59;;;9.93;nan
75681;BME280;64294;49.176;16.626;2024-02-26T04:00:06;98005.97;;;8.36;nan
75681;BME280;64294;49.176;16.626;2024-02-26T04:02:31;98006.41;;;5.76;nan
75681;BME280;64294;49.176;16.626;2024-02-26T04:04:57;98003.47;;;4.84;nan
75681;BME280;64294;49.176;16.626;2024-02-26T04:07:22;98004.25;;;7.11;nan
75681;BME280;64294;49.176;16.626;2024-02-26T04:09:47;98009.00;;;7.24;nan
75681;BME280;64294;49.176;16.626;2024-02-26T04:12:13;98008.16;;;8.73;nan
75681;BME280;64294;49.176;16.626;2024-02-26T04:14:38;98010.25;;;5.73;nan
75681;BME280;64294;49.176;16.626;2024-02-26T04:17:04;98009.88;;;5.24;nan
75681;BME280;64294;49.176;16.626;2024-02-26T04:19:29;98006.47;;;6.71;nan
75681;BME280;64294;49.176;16.626;2024-02-26T04:21:54;98012.09;;;8.78;nan
75681;BME280;64294;49.176;16.626;2024-02-26T04:24:20;98006.91;;;9.20;nan
75681;BME280;64294;49.176;16.626;2024-02-26T04:26:47;98016.25;;;9.76;nan
75681;BME280;64294;49.176;16.626;2024-02-26T04:29:15;98011.56;;;9.79;nan
75681;BME280;64294;49.176;16.626;2024-02-26T04:31:40;98009.16;;;9.52;nan
75681;BME280;64294;49.176;16.626;2024-02-26T04:34:07;98011.00;;;9.80;nan
75681;BME280;64294;49.176;16.626;2024-02-26T04:36:33;98005.22;;;9.63;nan
75681;BME280;64294;49.176;16.626;2024-02-26T04:38:58;98000.00;;;9.44;nan
75681;BME280;64294;49.176;16.626;2024-02-26T04:41:23;97999.44;;;9.68;nan
75681;BME280;64294;49.176;16.626;2024-02-26T04:43:49;97994.38;;;9.06;nan
75681;BME280;64294;49.176;16.626;2024-02-26T04:46:14;97997.91;;;8.84;nan
75681;BME280;64294;49.176;16.626;2024-02-26T04:48:39;97990.25;;;8.76;nan
75681;BME280;64294;49.176;16.626;2024-02-26T04:51:06;97998.25;;;8.72;nan
75681;BME280;64294;49.176;16.626;2024-02-26T04:53:32;97989.88;;;8.29;nan
75681;BME280;64294;49.176;16.626;2024-02-26T04:55:57;97996.72;;;8.56;nan
75681;BME280;64294;49.176;16.626;2024-02-26T04:58:23;97986.00;;;9.21;nan
75681;BME280;64294;49.176;16.626;2024-02-26T05:00:48;97987.25;;;8.90;nan
75681;BME280;64294;49.176;16.626;2024-02-26T05:03:13;97989.88;;;8.88;nan
75681;BME280;64294;49.176;16.626;2024-02-26T05:05:41;97992.34;;;9.14;nan
75681;BME280;64294;49.176;16.626;2024-02-26T05:08:06;97985.94;;;8.91;nan
75681;BME280;64294;49.176;16.626;2024-02-26T05:10:33;97992.69;;;8.88;nan
75681;BME280;64294;49.176;16.626;2024-02-26T05:13:01;97980.41;;;9.14;nan
75681;BME280;64294;49.176;16.626;2024-02-26T05:15:26;97991.22;;;9.25;nan
75681;BME280;64294;49.176;16.626;2024-02-26T05:17:52;97986.75;;;9.14;nan
75681;BME280;64294;49.176;16.626;2024-02-26T05:20:18;97985.06;;;9.11;nan
75681;BME280;64294;49.176;16.626;2024-02-26T05:22:43;97992.34;;;9.29;nan
75681;BME280;64294;49.176;16.626;2024-02-26T05:25:08;97985.03;;;9.41;nan
75681;BME280;64294;49.176;16.626;2024-02-26T05:27:34;97987.31;;;9.35;nan
75681;BME280;64294;49.176;16.626;2024-02-26T05:30:00;97986.72;;;9.67;nan
75681;BME280;64294;49.176;16.626;2024-02-26T05:32:25;97989.25;;;9.96;nan
75681;BME280;64294;49.176;16.626;2024-02-26T05:34:50;97991.03;;;9.30;nan
75681;BME280;64294;49.176;16.626;2024-02-26T05:37:16;97986.19;;;9.38;nan
75681;BME280;64294;49.176;16.626;2024-02-26T05:39:41;97994.00;;;8.94;nan
75681;BME280;64294;49.176;16.626;2024-02-26T05:42:07;97997.47;;;10.01;nan
75681;BME280;64294;49.176;16.626;2024-02-26T05:44:34;97992.31;;;9.75;nan
75681;BME280;64294;49.176;16.626;2024-02-26T05:46:59;97978.91;;;6.88;nan
75681;BME280;64294;49.176;16.626;2024-02-26T05:49:24;97984.75;;;6.77;nan
75681;BME280;64294;49.176;16.626;2024-02-26T05:51:50;97981.13;;;6.69;nan
75681;BME280;64294;49.176;16.626;2024-02-26T05:54:15;97991.84;;;6.44;nan
75681;BME280;64294;49.176;16.626;2024-02-26T05:56:41;97980.06;;;6.93;nan
75681;BME280;64294;49.176;16.626;2024-02-26T05:59:06;97982.72;;;6.44;nan
75681;BME280;64294;49.176;16.626;2024-02-26T06:01:31;97982.00;;;7.06;nan
75681;BME280;64294;49.176;16.626;2024-02-26T06:03:58;97981.25;;;6.63;nan
75681;BME280;64294;49.176;16.626;2024-02-26T06:06:23;97982.66;;;6.91;nan
75681;BME280;64294;49.176;16.626;2024-02-26T06:08:49;97987.00;;;8.13;nan
75681;BME280;64294;49.176;16.626;2024-02-26T06:11:14;98009.38;;;8.06;nan
75681;BME280;64294;49.176;16.626;2024-02-26T06:13:40;98002.28;;;8.48;nan
75681;BME280;64294;49.176;16.626;2024-02-26T06:16:05;97999.31;;;8.46;nan
75681;BME280;64294;49.176;16.626;2024-02-26T06:18:31;98004.06;;;8.31;nan
75681;BME280;64294;49.176;16.626;2024-02-26T06:20:56;98012.38;;;8.44;nan
75681;BME280;64294;49.176;16.626;2024-02-26T06:23:22;98006.91;;;9.28;nan
75681;BME280;64294;49.176;16.626;2024-02-26T06:25:48;98012.53;;;9.35;nan
75681;BME280;64294;49.176;16.626;2024-02-26T06:28:13;98014.56;;;9.04;nan
75681;BME280;64294;49.176;16.626;2024-02-26T06:30:39;98022.81;;;9.40;nan
75681;BME280;64294;49.176;16.626;2024-02-26T06:33:04;98028.59;;;9.65;nan
75681;BME280;64294;49.176;16.626;2024-02-26T06:35:30;98025.94;;;10.06;nan
75681;BME280;64294;49.176;16.626;2024-02-26T06:37:55;98038.94;;;10.81;nan
75681;BME280;64294;49.176;16.626;2024-02-26T06:40:21;98036.81;;;10.97;nan
75681;BME280;64294;49.176;16.626;2024-02-26T06:42:47;98041.78;;;11.39;nan
75681;BME280;64294;49.176;16.626;2024-02-26T06:45:12;98033.56;;;12.52;nan
75681;BME280;64294;49.176;16.626;2024-02-26T06:47:38;98047.19;;;11.12;nan
75681;BME280;64294;49.176;16.626;2024-02-26T06:50:03;98048.34;;;11.09;nan
75681;BME280;64294;49.176;16.626;2024-02-26T06:52:29;98051.47;;;11.45;nan
75681;BME280;64294;49.176;16.626;2024-02-26T06:54:54;98050.13;;;12.48;nan
75681;BME280;64294;49.176;16.626;2024-02-26T06:57:20;98043.22;;;13.20;nan
75681;BME280;64294;49.176;16.626;2024-02-26T06:59:46;98048.59;;;13.09;nan
75681;BME280;64294;49.176;16.626;2024-02-26T07:02:13;98045.44;;;13.68;nan
75681;BME280;64294;49.176;16.626;2024-02-26T07:04:39;98045.31;;;13.29;nan
75681;BME280;64294;49.176;16.626;2024-02-26T07:07:04;98047.06;;;14.37;nan
75681;BME280;64294;49.176;16.626;2024-02-26T07:09:29;98049.69;;;15.43;nan
75681;BME280;64294;49.176;16.626;2024-02-26T07:11:55;98053.03;;;14.70;nan
75681;BME280;64294;49.176;16.626;2024-02-26T07:14:20;98035.53;;;13.77;nan
75681;BME280;64294;49.176;16.626;2024-02-26T07:16:45;98049.06;;;16.92;nan
75681;BME280;64294;49.176;16.626;2024-02-26T07:19:11;98046.94;;;17.72;nan
75681;BME280;64294;49.176;16.626;2024-02-26T07:21:38;98052.94;;;17.20;nan
75681;BME280;64294;49.176;16.626;2024-02-26T07:24:05;98054.78;;;18.21;nan
75681;BME280;64294;49.176;16.626;2024-02-26T07:26:30;98053.00;;;18.39;nan
75681;BME280;64294;49.176;16.626;2024-02-26T07:28:56;98052.81;;;20.03;nan
75681;BME280;64294;49.176;16.626;2024-02-26T07:31:21;98041.72;;;17.57;nan
75681;BME280;64294;49.176;16.626;2024-02-26T07:33:47;98045.84;;;17.77;nan
75681;BME280;64294;49.176;16.626;2024-02-26T07:36:12;98055.44;;;16.81;nan
75681;BME280;64294;49.176;16.626;2024-02-26T07:38:37;98046.19;;;16.59;nan
75681;BME280;64294;49.176;16.626;2024-02-26T07:41:04;98047.53;;;18.06;nan
75681;BME280;64294;49.176;16.626;2024-02-26T07:43:30;98055.50;;;18.33;nan
75681;BME280;64294;49.176;16.626;2024-02-26T07:45:56;98062.50;;;17.83;nan
75681;BME280;64294;49.176;16.626;2024-02-26T07:48:21;98044.28;;;18.23;nan
75681;BME280;64294;49.176;16.626;2024-02-26T07:50:46;98049.66;;;18.05;nan
75681;BME280;64294;49.176;16.626;2024-02-26T07:53:13;98040.03;;;17.75;nan
75681;BME280;64294;49.176;16.626;2024-02-26T07:55:41;98042.59;;;18.06;nan
75681;BME280;64294;49.176;16.626;2024-02-26T07:58:07;98047.28;;;18.02;nan
75681;BME280;64294;49.176;16.626;2024-02-26T08:00:32;98041.19;;;18.19;nan
75681;BME280;64294;49.176;16.626;2024-02-26T08:02:57;98052.34;;;18.15;nan
75681;BME280;64294;49.176;16.626;2024-02-26T08:05:23;98053.88;;;17.01;nan
75681;BME280;64294;49.176;16.626;2024-02-26T08:07:50;74550.81;;;-145.65;100.00
75681;BME280;64294;49.176;16.626;2024-02-26T08:10:15;74550.81;;;-145.65;100.00
75681;BME280;64294;49.176;16.626;2024-02-26T08:12:40;74550.81;;;-145.65;100.00
75681;BME280;64294;49.176;16.626;2024-02-26T08:15:07;98045.38;;;17.01;nan
75681;BME280;64294;49.176;16.626;2024-02-26T08:17:33;98058.38;;;15.76;nan
75681;BME280;64294;49.176;16.626;2024-02-26T08:19:59;98060.88;;;15.51;nan
75681;BME280;64294;49.176;16.626;2024-02-26T08:22:24;98050.88;;;15.50;nan
75681;BME280;64294;49.176;16.626;2024-02-26T08:24:50;98052.22;;;14.98;nan
75681;BME280;64294;49.176;16.626;2024-02-26T08:27:15;98039.50;;;15.19;nan
75681;BME280;64294;49.176;16.626;2024-02-26T08:29:40;98048.75;;;15.60;nan
75681;BME280;64294;49.176;16.626;2024-02-26T08:32:06;98053.94;;;15.32;nan
75681;BME280;64294;49.176;16.626;2024-02-26T08:34:32;98066.66;;;16.15;nan
75681;BME280;64294;49.176;16.626;2024-02-26T08:36:57;98044.91;;;18.22;nan
75681;BME280;64294;49.176;16.626;2024-02-26T08:39:26;98059.50;;;16.56;nan
75681;BME280;64294;49.176;16.626;2024-02-26T08:41:51;98056.78;;;19.71;nan
75681;BME280;64294;49.176;16.626;2024-02-26T08:44:17;98052.84;;;19.36;nan
75681;BME280;64294;49.176;16.626;2024-02-26T08:46:42;98056.06;;;17.94;nan
75681;BME280;64294;49.176;16.626;2024-02-26T08:49:08;98063.63;;;16.01;nan
75681;BME280;64294;49.176;16.626;2024-02-26T08:51:33;98056.28;;;15.45;nan
75681;BME280;64294;49.176;16.626;2024-02-26T08:53:58;98058.34;;;15.86;nan
75681;BME280;64294;49.176;16.626;2024-02-26T08:56:24;98043.56;;;17.41;nan
75681;BME280;64294;49.176;16.626;2024-02-26T08:58:49;98049.38;;;18.62;nan
75681;BME280;64294;49.176;16.626;2024-02-26T09:01:18;98050.88;;;18.02;nan
75681;BME280;64294;49.176;16.626;2024-02-26T09:03:43;98035.91;;;22.35;nan
75681;BME280;64294;49.176;16.626;2024-02-26T09:06:09;98045.09;;;22.67;nan
75681;BME280;64294;49.176;16.626;2024-02-26T09:08:35;98040.56;;;20.71;nan
75681;BME280;64294;49.176;16.626;2024-02-26T09:11:04;98036.22;;;20.70;nan
75681;BME280;64294;49.176;16.626;2024-02-26T09:13:29;98039.72;;;19.18;nan
75681;BME280;64294;49.176;16.626;2024-02-26T09:15:55;98041.03;;;20.81;nan
75681;BME280;64294;49.176;16.626;2024-02-26T09:18:20;98040.63;;;20.44;nan
75681;BME280;64294;49.176;16.626;2024-02-26T09:20:46;98053.88;;;20.10;nan
75681;BME280;64294;49.176;16.626;2024-02-26T09:23:11;98051.34;;;20.73;nan
75681;BME280;64294;49.176;16.626;2024-02-26T09:25:37;98052.00;;;22.27;nan
75681;BME280;64294;49.176;16.626;2024-02-26T09:28:02;98044.31;;;24.35;nan
75681;BME280;64294;49.176;16.626;2024-02-26T09:30:28;98056.47;;;23.37;nan
75681;BME280;64294;49.176;16.626;2024-02-26T09:32:53;98043.31;;;23.67;nan
75681;BME280;64294;49.176;16.626;2024-02-26T09:35:19;98047.16;;;21.66;nan
75681;BME280;64294;49.176;16.626;2024-02-26T09:37:44;98047.81;;;23.17;nan
75681;BME280;64294;49.176;16.626;2024-02-26T09:40:10;98055.88;;;19.93;nan
75681;BME280;64294;49.176;16.626;2024-02-26T09:42:46;98047.47;;;22.55;nan
75681;BME280;64294;49.176;16.626;2024-02-26T09:45:21;98055.00;;;21.66;nan
75681;BME280;64294;49.176;16.626;2024-02-26T09:47:48;98050.88;;;22.34;nan
75681;BME280;64294;49.176;16.626;2024-02-26T09:50:17;98044.56;;;21.57;nan
75681;BME280;64294;49.176;16.626;2024-02-26T09:52:47;98051.47;;;22.15;nan
75681;BME280;64294;49.176;16.626;2024-02-26T09:55:13;98047.34;;;21.86;nan
75681;BME280;64294;49.176;16.626;2024-02-26T09:57:44;98056.19;;;20.13;nan
75681;BME280;64294;49.176;16.626;2024-02-26T10:00:14;98045.25;;;20.37;nan
75681;BME280;64294;49.176;16.626;2024-02-26T10:02:40;98058.22;;;19.44;nan
75681;BME280;64294;49.176;16.626;2024-02-26T10:05:10;98059.34;;;19.25;nan
75681;BME280;64294;49.176;16.626;2024-02-26T10:07:37;98046.13;;;18.19;nan
75681;BME280;64294;49.176;16.626;2024-02-26T10:10:03;98044.47;;;19.80;nan
75681;BME280;64294;49.176;16.626;2024-02-26T10:12:29;98076.44;;;19.00;nan
75681;BME280;64294;49.176;16.626;2024-02-26T10:14:56;98058.72;;;19.27;nan
75681;BME280;64294;49.176;16.626;2024-02-26T10:17:21;98058.41;;;17.98;nan
75681;BME280;64294;49.176;16.626;2024-02-26T10:19:47;98058.88;;;21.41;nan
75681;BME280;64294;49.176;16.626;2024-02-26T10:22:12;98096.53;;;22.14;nan
75681;BME280;64294;49.176;16.626;2024-02-26T10:24:38;98067.63;;;21.92;nan
75681;BME280;64294;49.176;16.626;2024-02-26T10:27:04;98063.88;;;21.40;nan
75681;BME280;64294;49.176;16.626;2024-02-26T10:29:31;98077.88;;;20.75;nan
75681;BME280;64294;49.176;16.626;2024-02-26T10:31:57;98068.88;;;20.10;nan
75681;BME280;64294;49.176;16.626;2024-02-26T10:34:22;98070.00;;;20.05;nan
75681;BME280;64294;49.176;16.626;2024-02-26T10:36:49;98072.56;;;19.07;nan
75681;BME280;64294;49.176;16.626;2024-02-26T10:39:14;98067.84;;;17.89;nan
75681;BME280;64294;49.176;16.626;2024-02-26T10:41:44;98064.59;;;18.55;nan
75681;BME280;64294;49.176;16.626;2024-02-26T10:44:11;98065.94;;;17.58;nan
75681;BME280;64294;49.176;16.626;2024-02-26T10:46:37;98061.25;;;20.29;nan
75681;BME280;64294;49.176;16.626;2024-02-26T10:49:04;98073.59;;;20.19;nan
75681;BME280;64294;49.176;16.626;2024-02-26T10:51:30;98062.34;;;19.41;nan
75681;BME280;64294;49.176;16.626;2024-02-26T10:53:57;98072.84;;;18.25;nan
75681;BME280;64294;49.176;16.626;2024-02-26T10:56:33;98073.38;;;20.56;nan
75681;BME280;64294;49.176;16.626;2024-02-26T10:59:00;98093.09;;;19.31;nan
75681;BME280;64294;49.176;16.626;2024-02-26T11:01:27;98061.66;;;19.54;nan
75681;BME280;64294;49.176;16.626;2024-02-26T11:03:55;98080.25;;;18.19;nan
75681;BME280;64294;49.176;16.626;2024-02-26T11:06:21;98066.03;;;18.30;nan
75681;BME280;64294;49.176;16.626;2024-02-26T11:08:50;98060.34;;;18.79;nan
75681;BME280;64294;49.176;16.626;2024-02-26T11:11:20;98059.25;;;18.24;nan
75681;BME280;64294;49.176;16.626;2024-02-26T11:13:47;98056.81;;;17.60;nan
75681;BME280;64294;49.176;16.626;2024-02-26T11:16:18;98062.25;;;17.67;nan
75681;BME280;64294;49.176;16.626;2024-02-26T11:18:43;98051.47;;;19.12;nan
75681;BME280;64294;49.176;16.626;2024-02-26T11:21:15;98064.16;;;18.84;nan
75681;BME280;64294;49.176;16.626;2024-02-26T11:23:41;98076.94;;;17.64;nan
75681;BME280;64294;49.176;16.626;2024-02-26T11:26:07;98042.00;;;18.82;nan
75681;BME280;64294;49.176;16.626;2024-02-26T11:28:34;98057.56;;;19.85;nan
75681;BME280;64294;49.176;16.626;2024-02-26T11:31:00;98047.28;;;20.07;nan
75681;BME280;64294;49.176;16.626;2024-02-26T11:33:27;98041.94;;;20.00;nan
75681;BME280;64294;49.176;16.626;2024-02-26T11:35:53;98063.66;;;20.34;nan
75681;BME280;64294;49.176;16.626;2024-02-26T11:38:20;98038.69;;;21.53;nan
75681;BME280;64294;49.176;16.626;2024-02-26T11:40:50;98053.34;;;20.70;nan
75681;BME280;64294;49.176;16.626;2024-02-26T11:43:15;98054.81;;;18.09;nan
75681;BME280;64294;49.176;16.626;2024-02-26T11:48:20;98054.78;;;17.15;nan
75681;BME280;64294;49.176;16.626;2024-02-26T11:50:53;98065.00;;;17.89;nan
75681;BME280;64294;49.176;16.626;2024-02-26T11:55:45;98046.19;;;18.07;nan
75681;BME280;64294;49.176;16.626;2024-02-26T11:58:10;98040.19;;;19.53;nan
75681;BME280;64294;49.176;16.626;2024-02-26T12:00:35;98029.88;;;19.87;nan
75681;BME280;64294;49.176;16.626;2024-02-26T12:03:02;98016.28;;;18.80;nan
75681;BME280;64294;49.176;16.626;2024-02-26T12:05:32;98029.53;;;19.01;nan
75681;BME280;64294;49.176;16.626;2024-02-26T12:08:04;98035.44;;;20.54;nan
75681;BME280;64294;49.176;16.626;2024-02-26T12:10:33;98026.59;;;20.64;nan
75681;BME280;64294;49.176;16.626;2024-02-26T12:13:13;98026.66;;;22.37;nan
75681;BME280;64294;49.176;16.626;2024-02-26T12:15:42;98031.75;;;18.77;nan
75681;BME280;64294;49.176;16.626;2024-02-26T12:18:10;98031.19;;;20.55;nan
75681;BME280;64294;49.176;16.626;2024-02-26T12:20:36;98037.16;;;20.75;nan
75681;BME280;64294;49.176;16.626;2024-02-26T12:23:03;98024.28;;;20.60;nan
75681;BME280;64294;49.176;16.626;2024-02-26T12:25:32;98019.22;;;20.15;nan
75681;BME280;64294;49.176;16.626;2024-02-26T12:27:58;98000.84;;;18.97;nan
75681;BME280;64294;49.176;16.626;2024-02-26T12:30:24;98011.97;;;20.42;nan
75681;BME280;64294;49.176;16.626;2024-02-26T12:32:55;98033.41;;;19.47;nan
75681;BME280;64294;49.176;16.626;2024-02-26T12:35:26;98009.31;;;19.61;nan
75681;BME280;64294;49.176;16.626;2024-02-26T12:37:53;98020.81;;;19.91;nan
75681;BME280;64294;49.176;16.626;2024-02-26T12:40:19;98018.31;;;20.26;nan
75681;BME280;64294;49.176;16.626;2024-02-26T12:42:45;98010.47;;;19.98;nan
75681;BME280;64294;49.176;16.626;2024-02-26T12:45:11;98014.91;;;20.87;nan
75681;BME280;64294;49.176;16.626;2024-02-26T12:47:41;98017.63;;;20.69;nan
75681;BME280;64294;49.176;16.626;2024-02-26T12:50:08;98009.56;;;19.40;nan
75681;BME280;64294;49.176;16.626;2024-02-26T12:52:42;98016.53;;;19.37;nan
75681;BME280;64294;49.176;16.626;2024-02-26T12:55:08;98027.03;;;18.44;nan
75681;BME280;64294;49.176;16.626;2024-02-26T12:57:38;98019.28;;;18.59;nan
75681;BME280;64294;49.176;16.626;2024-02-26T13:00:06;98009.50;;;19.65;nan
75681;BME280;64294;49.176;16.626;2024-02-26T13:02:37;98024.63;;;19.54;nan
75681;BME280;64294;49.176;16.626;2024-02-26T13:05:04;98005.97;;;20.36;nan
75681;BME280;64294;49.176;16.626;2024-02-26T13:07:30;98013.06;;;20.07;nan
75681;BME280;64294;49.176;16.626;2024-02-26T13:09:56;98025.66;;;18.83;nan